This is the latest recevied weather packets stored in our database for station/object AD6NH. If no packets are shown the sender has not sent any weather packets the latest 10 day(s).
| Time | Temp. | Humidity | Pressure | Rain* | Wind** | Luminosity | Snow |
|---|---|---|---|---|---|---|---|
| 1778029023 | 21.11° C | 38% | 1014.7 hPa | 0 mm | - | - | - |
| 1778028422 | 21.11° C | 38% | 1014.6 hPa | 0 mm | - | - | - |
| 1778027823 | 21.11° C | 38% | 1014.6 hPa | 0 mm | - | - | - |
| 1778027222 | 21.11° C | 38% | 1014.6 hPa | 0 mm | - | - | - |
| 1778026622 | 21.11° C | 38% | 1014.6 hPa | 0 mm | - | - | - |
| 1778026022 | 21.11° C | 38% | 1014.6 hPa | 0 mm | - | - | - |
| 1778025423 | 21.11° C | 38% | 1014.6 hPa | 0 mm | - | - | - |
| 1778024822 | 21.11° C | 38% | 1014.7 hPa | 0 mm | - | - | - |
| 1778024223 | 21.67° C | 38% | 1014.8 hPa | 0 mm | - | - | - |
| 1778023623 | 20.56° C | 43% | 1014.7 hPa | 0 mm | - | - | - |
| 1778023022 | 20° C | 44% | 1014.8 hPa | 0 mm | - | - | - |
| 1778022423 | 20.56° C | 43% | 1014.9 hPa | 0 mm | - | - | - |
| 1778021823 | 21.11° C | 42% | 1014.9 hPa | 0 mm | - | - | - |
| 1778021222 | 20.56° C | 44% | 1014.9 hPa | 0 mm | - | - | - |
| 1778020623 | 21.11° C | 42% | 1015 hPa | 0 mm | - | - | - |
| 1778020022 | 21.11° C | 42% | 1015 hPa | 0 mm | - | - | - |
| 1778019423 | 21.67° C | 41% | 1015.1 hPa | 0 mm | - | - | - |
| 1778018822 | 21.67° C | 40% | 1015.2 hPa | 0 mm | - | - | - |
| 1778018222 | 21.11° C | 39% | 1015.2 hPa | 0 mm | - | - | - |
| 1778017622 | 21.11° C | 41% | 1015.3 hPa | 0 mm | - | - | - |
| 1778017022 | 21.67° C | 42% | 1015.3 hPa | 0 mm | - | - | - |
| 1778016422 | 21.11° C | 42% | 1015.5 hPa | 0 mm | - | - | - |
| 1778015823 | 21.67° C | 41% | 1015.4 hPa | 0 mm | - | - | - |
| 1778015222 | 21.11° C | 42% | 1015.5 hPa | 0 mm | - | - | - |
| 1778014623 | 22.22° C | 42% | 1015.5 hPa | 0 mm | - | - | - |
* Rain latest hour (hover to see other rain measurements)
** Current wind speed in m/s (hover to see current wind gust speed)